createdAt,value
2023-01-31T00:00:19.793Z,6.87
2023-01-31T00:01:19.810Z,6.97
2023-01-31T00:02:20.782Z,6.99
2023-01-31T00:03:19.743Z,6.99
2023-01-31T00:04:19.724Z,6.89
2023-01-31T00:05:20.148Z,7.02
2023-01-31T00:06:19.719Z,6.96
2023-01-31T00:07:19.705Z,6.92
2023-01-31T00:08:19.686Z,6.87
2023-01-31T00:09:19.692Z,6.95
2023-01-31T00:10:19.647Z,7.02
2023-01-31T00:11:19.713Z,6.88
2023-01-31T00:12:19.650Z,6.81
2023-01-31T00:13:19.637Z,6.88
2023-01-31T00:14:19.651Z,6.87
2023-01-31T00:15:19.950Z,6.96
2023-01-31T00:16:19.638Z,7.07
2023-01-31T00:17:19.591Z,7.17
2023-01-31T00:18:19.617Z,6.93
2023-01-31T00:19:20.580Z,6.87
2023-01-31T00:20:19.553Z,7.00
2023-01-31T00:21:19.529Z,7.02
2023-01-31T00:22:19.535Z,7.02
2023-01-31T00:23:19.509Z,7.10
2023-01-31T00:24:19.524Z,6.93
2023-01-31T00:25:19.893Z,7.02
2023-01-31T00:26:20.603Z,7.14
2023-01-31T00:27:19.465Z,7.07
2023-01-31T00:28:19.491Z,7.25
2023-01-31T00:29:19.551Z,7.23
2023-01-31T00:30:19.449Z,7.20
2023-01-31T00:31:19.574Z,7.03
2023-01-31T00:32:19.503Z,7.06
2023-01-31T00:33:19.414Z,7.06
2023-01-31T00:34:19.393Z,7.13
2023-01-31T00:35:19.794Z,7.03
2023-01-31T00:36:19.381Z,7.18
2023-01-31T00:37:21.279Z,7.15
2023-01-31T00:38:19.360Z,7.05
2023-01-31T00:39:20.353Z,6.96
2023-01-31T00:40:19.392Z,6.97
2023-01-31T00:41:19.380Z,7.06
2023-01-31T00:42:19.307Z,7.15
2023-01-31T00:43:19.306Z,7.24
2023-01-31T00:44:20.294Z,7.28
2023-01-31T00:45:19.555Z,7.05
2023-01-31T00:46:19.360Z,7.11
2023-01-31T00:47:19.266Z,7.00
2023-01-31T00:48:19.259Z,7.02
2023-01-31T00:49:19.255Z,7.03
2023-01-31T00:50:19.251Z,6.99
2023-01-31T00:51:19.208Z,7.14
2023-01-31T00:52:19.342Z,7.05
2023-01-31T00:53:19.205Z,7.02
2023-01-31T00:54:19.180Z,7.07
2023-01-31T00:55:19.515Z,7.03
2023-01-31T00:56:19.741Z,6.95
2023-01-31T00:57:19.202Z,6.96
2023-01-31T00:58:20.135Z,7.06
2023-01-31T00:59:19.129Z,7.06
2023-01-31T01:00:19.113Z,7.15
2023-01-31T01:01:19.166Z,7.18
2023-01-31T01:02:19.171Z,7.11
2023-01-31T01:03:19.149Z,6.89
2023-01-31T01:04:20.106Z,6.78
2023-01-31T01:05:19.376Z,6.85
2023-01-31T01:06:19.064Z,6.96
2023-01-31T01:07:20.127Z,6.97
2023-01-31T01:08:20.025Z,6.85
2023-01-31T01:09:19.015Z,6.81
2023-01-31T01:10:19.002Z,6.88
2023-01-31T01:11:19.015Z,6.67
2023-01-31T01:12:18.984Z,6.72
2023-01-31T01:13:19.037Z,6.67
2023-01-31T01:14:18.964Z,6.70
2023-01-31T01:15:20.336Z,6.57
2023-01-31T01:16:26.864Z,6.67
2023-01-31T01:17:19.954Z,6.69
2023-01-31T01:18:18.925Z,6.78
2023-01-31T01:19:18.936Z,6.79
2023-01-31T01:20:18.932Z,6.82
2023-01-31T01:21:19.936Z,6.63
2023-01-31T01:22:19.875Z,6.64
2023-01-31T01:23:19.937Z,6.59
2023-01-31T01:24:19.880Z,6.63
2023-01-31T01:25:19.293Z,6.75
2023-01-31T01:26:18.952Z,6.70
2023-01-31T01:27:19.845Z,6.64
2023-01-31T01:28:18.809Z,6.75
2023-01-31T01:29:18.887Z,6.63
2023-01-31T01:30:18.794Z,6.70
2023-01-31T01:31:19.915Z,6.56
2023-01-31T01:32:18.875Z,6.64
2023-01-31T01:33:18.755Z,6.69
2023-01-31T01:34:19.293Z,6.75
2023-01-31T01:35:20.129Z,6.66
2023-01-31T01:36:19.764Z,6.74
2023-01-31T01:37:18.749Z,6.69
2023-01-31T01:38:18.705Z,6.84
2023-01-31T01:39:18.694Z,6.74
2023-01-31T01:40:19.738Z,6.64
2023-01-31T01:41:18.699Z,6.72
2023-01-31T01:42:18.671Z,6.72
2023-01-31T01:43:18.700Z,6.78
2023-01-31T01:44:18.675Z,6.69
2023-01-31T01:45:21.035Z,6.66
2023-01-31T01:46:18.750Z,6.75
2023-01-31T01:47:18.624Z,6.70
2023-01-31T01:48:19.643Z,6.70
2023-01-31T01:49:18.612Z,6.78
2023-01-31T01:50:18.626Z,6.64
2023-01-31T01:51:18.573Z,6.72
2023-01-31T01:52:18.612Z,6.64
2023-01-31T01:53:18.562Z,6.75
2023-01-31T01:54:18.544Z,6.54
2023-01-31T01:55:18.907Z,6.74
2023-01-31T01:56:18.566Z,6.69
2023-01-31T01:57:18.507Z,6.72
2023-01-31T01:58:18.494Z,6.69
2023-01-31T01:59:19.508Z,6.70
2023-01-31T02:00:19.515Z,6.62
2023-01-31T02:01:18.582Z,6.63
2023-01-31T02:02:19.511Z,6.59
2023-01-31T02:03:18.495Z,6.72
2023-01-31T02:04:18.446Z,6.79
2023-01-31T02:05:19.706Z,6.70
2023-01-31T02:06:19.403Z,6.66
2023-01-31T02:07:18.411Z,6.69
2023-01-31T02:08:19.453Z,6.69
2023-01-31T02:09:19.374Z,6.70
2023-01-31T02:10:18.371Z,6.79
2023-01-31T02:11:18.348Z,6.69
2023-01-31T02:12:19.343Z,6.77
2023-01-31T02:13:18.357Z,6.63
2023-01-31T02:14:18.400Z,6.63
2023-01-31T02:15:19.662Z,6.70
2023-01-31T02:16:18.342Z,6.62
2023-01-31T02:17:18.328Z,6.59
2023-01-31T02:18:18.283Z,6.77
2023-01-31T02:19:19.282Z,6.66
2023-01-31T02:20:18.288Z,6.70
2023-01-31T02:21:19.240Z,6.78
2023-01-31T02:22:18.291Z,6.77
2023-01-31T02:23:19.237Z,6.69
2023-01-31T02:24:18.227Z,6.74
2023-01-31T02:25:18.537Z,6.82
2023-01-31T02:26:18.321Z,6.79
2023-01-31T02:27:18.180Z,6.54
2023-01-31T02:28:18.237Z,6.63
2023-01-31T02:29:18.172Z,6.67
2023-01-31T02:30:18.168Z,6.70
2023-01-31T02:31:19.182Z,6.66
2023-01-31T02:32:18.171Z,6.69
2023-01-31T02:33:19.172Z,6.70
2023-01-31T02:34:19.131Z,6.70
2023-01-31T02:35:18.649Z,6.74
2023-01-31T02:36:18.096Z,6.67
2023-01-31T02:37:19.078Z,6.67
2023-01-31T02:38:18.064Z,6.77
2023-01-31T02:39:18.134Z,6.81
2023-01-31T02:40:18.088Z,6.75
2023-01-31T02:41:18.048Z,6.64
2023-01-31T02:42:18.048Z,6.77
2023-01-31T02:43:18.024Z,6.72
2023-01-31T02:44:18.020Z,6.69
2023-01-31T02:45:18.468Z,6.75
2023-01-31T02:46:18.191Z,6.77
2023-01-31T02:47:17.983Z,6.70
2023-01-31T02:48:17.949Z,6.87
2023-01-31T02:49:17.942Z,6.88
2023-01-31T02:50:17.930Z,6.96
2023-01-31T02:51:19.001Z,6.78
2023-01-31T02:52:18.945Z,6.64
2023-01-31T02:53:17.916Z,6.59
2023-01-31T02:54:17.915Z,6.67
2023-01-31T02:55:18.366Z,6.74
2023-01-31T02:56:18.074Z,6.79
2023-01-31T02:57:17.899Z,6.75
2023-01-31T02:58:18.892Z,6.79
2023-01-31T02:59:17.861Z,6.79
2023-01-31T03:00:17.846Z,6.64
2023-01-31T03:01:17.828Z,6.75
2023-01-31T03:02:17.839Z,6.63
2023-01-31T03:03:17.818Z,6.70
2023-01-31T03:04:17.786Z,6.74
2023-01-31T03:05:18.395Z,6.82
2023-01-31T03:06:17.791Z,6.84
2023-01-31T03:07:17.796Z,6.87
2023-01-31T03:08:17.765Z,6.82
2023-01-31T03:09:17.750Z,6.96
2023-01-31T03:10:18.619Z,6.87
2023-01-31T03:11:18.744Z,6.93
2023-01-31T03:12:19.472Z,6.88
2023-01-31T03:13:17.974Z,6.82
2023-01-31T03:14:17.933Z,6.75
2023-01-31T03:15:17.885Z,6.81
2023-01-31T03:16:17.852Z,6.81
2023-01-31T03:17:18.801Z,6.87
2023-01-31T03:18:17.676Z,6.85
2023-01-31T03:19:17.644Z,6.85
2023-01-31T03:20:17.639Z,6.84
2023-01-31T03:21:17.634Z,6.92
2023-01-31T03:22:17.597Z,6.99
2023-01-31T03:23:17.946Z,6.93
2023-01-31T03:24:18.211Z,6.95
2023-01-31T03:25:19.694Z,6.97
2023-01-31T03:26:18.036Z,6.82
2023-01-31T03:27:18.829Z,6.85
2023-01-31T03:28:17.596Z,6.95
2023-01-31T03:29:17.771Z,6.89
2023-01-31T03:30:17.545Z,6.89
2023-01-31T03:31:18.701Z,6.82
2023-01-31T03:32:17.481Z,6.81
2023-01-31T03:33:17.489Z,6.87
2023-01-31T03:34:18.511Z,6.82
2023-01-31T03:35:18.237Z,6.81
2023-01-31T03:36:18.996Z,6.88
2023-01-31T03:37:17.872Z,6.69
2023-01-31T03:38:17.692Z,6.82
2023-01-31T03:39:17.741Z,6.93
2023-01-31T03:40:18.568Z,6.97
2023-01-31T03:41:17.538Z,6.99
2023-01-31T03:42:17.451Z,7.02
2023-01-31T03:43:18.398Z,7.05
2023-01-31T03:44:17.388Z,6.97
2023-01-31T03:45:17.560Z,6.99
2023-01-31T03:46:17.591Z,6.79
2023-01-31T03:47:17.920Z,6.81
2023-01-31T03:48:17.730Z,6.85
2023-01-31T03:49:17.788Z,6.81
2023-01-31T03:50:17.539Z,6.84
2023-01-31T03:51:18.193Z,6.79
2023-01-31T03:52:17.459Z,6.81
2023-01-31T03:53:17.292Z,6.78
2023-01-31T03:54:18.259Z,6.63
2023-01-31T03:55:17.324Z,6.66
2023-01-31T03:56:17.233Z,6.72
2023-01-31T03:57:17.220Z,6.82
2023-01-31T03:58:17.247Z,6.81
2023-01-31T03:59:18.192Z,6.84
2023-01-31T04:00:17.239Z,6.79
2023-01-31T04:01:17.197Z,6.81
2023-01-31T04:02:17.189Z,6.93
2023-01-31T04:03:17.159Z,6.88
2023-01-31T04:04:17.163Z,6.88
2023-01-31T04:05:18.857Z,6.85
2023-01-31T04:06:18.134Z,6.79
2023-01-31T04:07:18.140Z,6.88
2023-01-31T04:08:18.115Z,6.87
2023-01-31T04:09:17.099Z,6.93
2023-01-31T04:10:17.122Z,6.82
2023-01-31T04:11:17.085Z,6.92
2023-01-31T04:12:17.069Z,6.81
2023-01-31T04:13:17.127Z,6.85
2023-01-31T04:14:17.034Z,6.85
2023-01-31T04:15:18.705Z,6.89
2023-01-31T04:16:18.062Z,6.88
2023-01-31T04:17:17.038Z,6.95
2023-01-31T04:18:16.994Z,6.74
2023-01-31T04:19:16.998Z,6.70
2023-01-31T04:20:17.989Z,6.64
2023-01-31T04:21:16.990Z,6.59
2023-01-31T04:22:16.974Z,6.59
2023-01-31T04:23:16.942Z,6.64
2023-01-31T04:24:16.948Z,6.75
2023-01-31T04:25:18.565Z,6.77
2023-01-31T04:26:16.989Z,6.81
2023-01-31T04:27:16.965Z,6.74
2023-01-31T04:28:16.911Z,6.82
2023-01-31T04:29:17.688Z,6.88
2023-01-31T04:30:16.882Z,6.72
2023-01-31T04:31:17.068Z,6.78
2023-01-31T04:32:16.948Z,6.70
2023-01-31T04:33:16.851Z,6.70
2023-01-31T04:34:17.835Z,6.74
2023-01-31T04:35:16.821Z,6.72
2023-01-31T04:36:16.810Z,6.66
2023-01-31T04:37:16.894Z,6.74
2023-01-31T04:38:17.809Z,6.66
2023-01-31T04:39:16.793Z,6.67
2023-01-31T04:40:16.791Z,6.60
2023-01-31T04:41:16.755Z,6.56
2023-01-31T04:42:17.681Z,6.44
2023-01-31T04:43:16.730Z,6.54
2023-01-31T04:44:17.792Z,6.56
2023-01-31T04:45:16.720Z,6.60
2023-01-31T04:46:17.710Z,6.64
2023-01-31T04:47:16.681Z,6.60
2023-01-31T04:48:16.717Z,6.66
2023-01-31T04:49:16.683Z,6.64
2023-01-31T04:50:16.653Z,6.74
2023-01-31T04:51:16.688Z,6.70
2023-01-31T04:52:16.672Z,6.67
2023-01-31T04:53:17.696Z,6.70
2023-01-31T04:54:17.608Z,6.64
2023-01-31T04:55:18.085Z,6.56
2023-01-31T04:56:16.607Z,6.56
2023-01-31T04:57:17.160Z,6.63
2023-01-31T04:58:16.610Z,6.63
2023-01-31T04:59:16.617Z,6.74
2023-01-31T05:00:16.538Z,6.72
2023-01-31T05:01:17.210Z,6.70
2023-01-31T05:02:17.530Z,6.69
2023-01-31T05:03:16.555Z,6.69
2023-01-31T05:04:16.536Z,6.75
2023-01-31T05:05:16.489Z,6.70
2023-01-31T05:06:16.523Z,6.72
2023-01-31T05:07:16.481Z,6.69
2023-01-31T05:08:16.466Z,6.64
2023-01-31T05:09:16.471Z,6.64
2023-01-31T05:10:16.488Z,6.57
2023-01-31T05:11:16.433Z,6.66
2023-01-31T05:12:16.447Z,6.63
2023-01-31T05:13:17.424Z,6.54
2023-01-31T05:14:17.409Z,6.60
2023-01-31T05:15:17.505Z,6.63
2023-01-31T05:16:17.514Z,6.59
2023-01-31T05:17:17.370Z,6.48
2023-01-31T05:18:17.352Z,6.42
2023-01-31T05:19:16.350Z,6.44
2023-01-31T05:20:16.582Z,6.42
2023-01-31T05:21:16.380Z,6.52
2023-01-31T05:22:17.175Z,6.35
2023-01-31T05:23:17.315Z,6.41
2023-01-31T05:24:17.328Z,6.54
2023-01-31T05:25:16.564Z,6.51
2023-01-31T05:26:17.329Z,6.57
2023-01-31T05:27:17.127Z,6.51
2023-01-31T05:28:16.305Z,6.56
2023-01-31T05:29:17.240Z,6.54
2023-01-31T05:30:17.265Z,6.66
2023-01-31T05:31:17.336Z,6.63
2023-01-31T05:32:16.225Z,6.60
2023-01-31T05:33:17.179Z,6.66
2023-01-31T05:34:16.219Z,6.69
2023-01-31T05:35:16.176Z,6.54
2023-01-31T05:36:16.238Z,6.51
2023-01-31T05:37:16.157Z,6.62
2023-01-31T05:38:17.143Z,6.38
2023-01-31T05:39:16.161Z,6.39
2023-01-31T05:40:17.146Z,6.44
2023-01-31T05:41:17.117Z,6.41
2023-01-31T05:42:16.118Z,6.42
2023-01-31T05:43:17.090Z,6.56
2023-01-31T05:44:16.116Z,6.59
2023-01-31T05:45:16.119Z,6.60
2023-01-31T05:46:16.051Z,6.60
2023-01-31T05:47:16.072Z,6.62
2023-01-31T05:48:17.054Z,6.62
2023-01-31T05:49:16.064Z,6.60
2023-01-31T05:50:16.035Z,6.59
2023-01-31T05:51:15.992Z,6.63
2023-01-31T05:52:17.025Z,6.44
2023-01-31T05:53:15.990Z,6.59
2023-01-31T05:54:15.975Z,6.62
2023-01-31T05:55:17.102Z,6.64
2023-01-31T05:56:15.958Z,6.66
2023-01-31T05:57:15.945Z,6.66
2023-01-31T05:58:15.926Z,6.77
2023-01-31T05:59:15.986Z,6.66
2023-01-31T06:00:15.894Z,6.56
2023-01-31T06:01:16.937Z,6.54
2023-01-31T06:02:15.955Z,6.52
2023-01-31T06:03:16.927Z,6.41
2023-01-31T06:04:15.862Z,6.39
2023-01-31T06:05:15.869Z,6.44
2023-01-31T06:06:15.829Z,6.41
2023-01-31T06:07:15.828Z,6.66
2023-01-31T06:08:15.894Z,6.49
2023-01-31T06:09:15.812Z,6.52
2023-01-31T06:10:15.816Z,6.63
2023-01-31T06:11:15.799Z,6.60
2023-01-31T06:12:16.793Z,6.54
2023-01-31T06:13:15.809Z,6.38
2023-01-31T06:14:15.787Z,6.52
2023-01-31T06:15:15.749Z,6.63
2023-01-31T06:16:15.767Z,6.57
2023-01-31T06:17:15.720Z,6.64
2023-01-31T06:18:16.738Z,6.48
2023-01-31T06:19:15.727Z,6.49
2023-01-31T06:20:16.735Z,6.59
2023-01-31T06:21:16.717Z,6.62
2023-01-31T06:22:15.674Z,6.74
2023-01-31T06:23:15.680Z,6.67
2023-01-31T06:24:15.660Z,6.57
2023-01-31T06:25:15.668Z,6.66
2023-01-31T06:26:15.660Z,6.52
2023-01-31T06:27:15.648Z,6.56
2023-01-31T06:28:16.612Z,6.63
2023-01-31T06:29:15.600Z,6.70
2023-01-31T06:30:15.629Z,6.66
2023-01-31T06:31:15.733Z,6.57
2023-01-31T06:32:16.557Z,6.67
2023-01-31T06:33:15.565Z,6.64
2023-01-31T06:34:15.538Z,6.63
2023-01-31T06:35:15.530Z,6.81
2023-01-31T06:36:18.694Z,6.74
2023-01-31T06:37:16.494Z,6.56
2023-01-31T06:38:15.540Z,6.56
2023-01-31T06:39:15.487Z,6.54
2023-01-31T06:40:15.505Z,6.48
2023-01-31T06:41:15.489Z,6.51
2023-01-31T06:42:15.485Z,6.62
2023-01-31T06:43:15.463Z,6.64
2023-01-31T06:44:15.454Z,6.57
2023-01-31T06:45:15.440Z,6.66
2023-01-31T06:46:16.482Z,6.63
2023-01-31T06:47:15.429Z,6.60
2023-01-31T06:48:15.398Z,6.59
2023-01-31T06:49:16.424Z,6.62
2023-01-31T06:50:15.358Z,6.66
2023-01-31T06:51:15.348Z,6.74
2023-01-31T06:52:15.414Z,6.63
2023-01-31T06:53:15.347Z,6.81
2023-01-31T06:54:15.335Z,6.64
2023-01-31T06:55:15.383Z,6.74
2023-01-31T06:56:15.329Z,6.67
2023-01-31T06:57:15.297Z,6.74
2023-01-31T06:58:15.274Z,6.72
2023-01-31T06:59:15.281Z,6.69
2023-01-31T07:00:15.306Z,6.78
2023-01-31T07:01:16.378Z,6.84
2023-01-31T07:02:15.278Z,6.77
2023-01-31T07:03:15.237Z,6.74
2023-01-31T07:04:15.215Z,6.69
2023-01-31T07:05:15.293Z,6.77
2023-01-31T07:06:15.203Z,6.67
2023-01-31T07:07:15.190Z,6.77
2023-01-31T07:08:15.175Z,6.87
2023-01-31T07:09:16.211Z,6.82
2023-01-31T07:10:16.209Z,6.79
2023-01-31T07:11:15.139Z,6.79
2023-01-31T07:12:16.162Z,6.62
2023-01-31T07:13:15.139Z,6.64
2023-01-31T07:14:15.104Z,6.72
2023-01-31T07:15:15.090Z,6.64
2023-01-31T07:16:16.204Z,6.70
2023-01-31T07:17:16.103Z,6.60
2023-01-31T07:18:15.122Z,6.78
2023-01-31T07:19:15.047Z,6.81
2023-01-31T07:20:16.069Z,6.81
2023-01-31T07:21:16.055Z,6.88
2023-01-31T07:22:16.028Z,6.85
2023-01-31T07:23:16.053Z,6.78
2023-01-31T07:24:15.037Z,6.79
2023-01-31T07:25:15.014Z,6.75
2023-01-31T07:26:15.030Z,6.77
2023-01-31T07:27:15.972Z,6.66
2023-01-31T07:28:16.053Z,6.72
2023-01-31T07:29:14.958Z,6.72
2023-01-31T07:30:16.016Z,6.67
2023-01-31T07:31:14.996Z,6.82
2023-01-31T07:32:14.934Z,6.84
2023-01-31T07:33:14.946Z,6.88
2023-01-31T07:34:15.901Z,6.88
2023-01-31T07:35:15.908Z,6.89
2023-01-31T07:36:14.935Z,6.85
2023-01-31T07:37:15.853Z,6.95
2023-01-31T07:38:14.878Z,6.78
2023-01-31T07:39:14.839Z,6.82
2023-01-31T07:40:14.871Z,6.87
2023-01-31T07:41:14.819Z,6.84
2023-01-31T07:42:14.838Z,6.85
2023-01-31T07:43:15.817Z,6.88
2023-01-31T07:44:15.820Z,6.97
2023-01-31T07:45:23.338Z,6.89
2023-01-31T07:46:15.790Z,6.84
2023-01-31T07:47:14.779Z,6.89
2023-01-31T07:48:14.750Z,6.88
2023-01-31T07:49:14.776Z,6.88
2023-01-31T07:50:14.767Z,6.81
2023-01-31T07:51:14.719Z,6.87
2023-01-31T07:52:14.711Z,6.97
2023-01-31T07:53:14.700Z,6.97
2023-01-31T07:54:14.724Z,7.03
2023-01-31T07:55:14.698Z,6.92
2023-01-31T07:56:15.684Z,6.88
2023-01-31T07:57:15.645Z,6.89
2023-01-31T07:58:14.675Z,6.99
2023-01-31T07:59:14.638Z,7.02
2023-01-31T08:00:14.664Z,7.07
2023-01-31T08:01:14.684Z,7.07
2023-01-31T08:02:14.622Z,6.92
2023-01-31T08:03:14.616Z,6.84
2023-01-31T08:04:21.676Z,6.99
2023-01-31T08:05:15.645Z,7.06
2023-01-31T08:06:14.595Z,7.00
2023-01-31T08:07:14.587Z,6.99
2023-01-31T08:08:14.524Z,6.99
2023-01-31T08:09:14.557Z,6.99
2023-01-31T08:10:14.539Z,7.03
2023-01-31T08:11:14.508Z,7.13
2023-01-31T08:12:14.534Z,7.15
2023-01-31T08:13:14.490Z,7.24
2023-01-31T08:14:14.460Z,7.15
2023-01-31T08:15:14.480Z,7.14
2023-01-31T08:16:14.494Z,7.24
2023-01-31T08:17:14.502Z,7.25
2023-01-31T08:18:14.435Z,7.43
2023-01-31T08:19:14.420Z,7.42
2023-01-31T08:20:14.482Z,7.33
2023-01-31T08:21:14.415Z,7.39
2023-01-31T08:22:14.389Z,7.45
2023-01-31T08:23:14.395Z,7.48
2023-01-31T08:24:14.384Z,7.39
2023-01-31T08:25:14.358Z,7.48
2023-01-31T08:26:14.343Z,7.48
2023-01-31T08:27:14.347Z,7.57
2023-01-31T08:28:14.326Z,7.63
2023-01-31T08:29:14.370Z,7.58
2023-01-31T08:30:14.322Z,7.66
2023-01-31T08:31:14.426Z,7.67
2023-01-31T08:32:14.382Z,7.53
2023-01-31T08:33:14.301Z,7.73
2023-01-31T08:34:15.012Z,7.77
2023-01-31T08:35:14.281Z,7.87
2023-01-31T08:36:14.230Z,7.80
2023-01-31T08:37:17.348Z,7.91
2023-01-31T08:38:18.466Z,7.83
2023-01-31T08:39:14.228Z,7.83
2023-01-31T08:40:14.202Z,7.83
2023-01-31T08:41:14.210Z,7.82
2023-01-31T08:42:14.165Z,7.91
2023-01-31T08:43:14.155Z,7.94
2023-01-31T08:44:14.212Z,7.90
2023-01-31T08:45:14.162Z,7.83
2023-01-31T08:46:14.193Z,7.63
2023-01-31T08:47:14.145Z,7.75
2023-01-31T08:48:14.121Z,7.85
2023-01-31T08:49:14.116Z,7.67
2023-01-31T08:50:26.967Z,7.72
2023-01-31T08:51:15.075Z,7.72
2023-01-31T08:52:14.070Z,7.75
2023-01-31T08:53:14.090Z,7.93
2023-01-31T08:54:14.079Z,7.73
2023-01-31T08:55:14.045Z,7.66
2023-01-31T08:56:14.033Z,7.83
2023-01-31T08:57:14.055Z,7.85
2023-01-31T08:58:15.014Z,7.85
2023-01-31T08:59:14.028Z,7.85
2023-01-31T09:00:13.972Z,7.91
2023-01-31T09:01:14.063Z,7.90
2023-01-31T09:02:13.975Z,7.91
2023-01-31T09:03:13.975Z,7.98
2023-01-31T09:04:13.961Z,7.98
2023-01-31T09:05:14.074Z,7.93
2023-01-31T09:06:13.912Z,7.91
2023-01-31T09:07:13.909Z,7.87
2023-01-31T09:08:13.973Z,7.87
2023-01-31T09:09:14.894Z,7.93
2023-01-31T09:10:13.894Z,7.82
2023-01-31T09:11:13.862Z,7.95
2023-01-31T09:12:13.875Z,7.87
2023-01-31T09:13:13.861Z,7.75
2023-01-31T09:14:13.853Z,7.73
2023-01-31T09:15:14.814Z,7.75
2023-01-31T09:16:13.830Z,7.77
2023-01-31T09:17:14.829Z,7.73
2023-01-31T09:18:13.824Z,7.87
2023-01-31T09:19:13.804Z,7.87
2023-01-31T09:20:13.777Z,7.94
2023-01-31T09:21:13.790Z,7.82
2023-01-31T09:22:13.756Z,7.93
2023-01-31T09:23:13.718Z,7.94
2023-01-31T09:24:13.724Z,7.91
2023-01-31T09:25:13.735Z,7.97
2023-01-31T09:26:13.817Z,7.98
2023-01-31T09:27:14.674Z,8.05
2023-01-31T09:28:14.674Z,8.05
2023-01-31T09:29:13.666Z,8.03
2023-01-31T09:30:13.665Z,7.83
2023-01-31T09:31:13.689Z,7.88
2023-01-31T09:32:13.652Z,7.97
2023-01-31T09:33:13.622Z,7.88
2023-01-31T09:34:13.617Z,8.01
2023-01-31T09:35:14.415Z,8.10
2023-01-31T09:36:13.614Z,8.03
2023-01-31T09:37:13.594Z,8.05
2023-01-31T09:38:13.652Z,8.01
2023-01-31T09:39:13.560Z,7.94
2023-01-31T09:40:14.531Z,7.75
2023-01-31T09:41:13.526Z,7.72
2023-01-31T09:42:13.527Z,7.67
2023-01-31T09:43:14.539Z,7.79
2023-01-31T09:44:13.542Z,7.94
2023-01-31T09:45:13.497Z,7.95
2023-01-31T09:46:13.462Z,7.93
2023-01-31T09:47:13.464Z,8.03
2023-01-31T09:48:13.460Z,8.00
2023-01-31T09:49:13.473Z,8.08
2023-01-31T09:50:14.445Z,8.01
2023-01-31T09:51:13.415Z,7.95
2023-01-31T09:52:14.428Z,7.95
2023-01-31T09:53:13.440Z,8.03
2023-01-31T09:54:13.448Z,8.05
2023-01-31T09:55:13.378Z,8.03
2023-01-31T09:56:13.359Z,8.03
2023-01-31T09:57:13.353Z,8.06
2023-01-31T09:58:14.333Z,8.10
2023-01-31T09:59:13.377Z,8.15
2023-01-31T10:00:13.396Z,8.13
2023-01-31T10:01:13.363Z,8.12
2023-01-31T10:02:13.345Z,8.12
2023-01-31T10:03:13.303Z,8.08
2023-01-31T10:04:13.354Z,8.19
2023-01-31T10:05:13.267Z,8.16
2023-01-31T10:06:13.279Z,8.27
2023-01-31T10:07:14.257Z,8.30
2023-01-31T10:08:13.273Z,8.36
2023-01-31T10:09:13.255Z,8.37
2023-01-31T10:10:13.212Z,8.28
2023-01-31T10:11:13.200Z,8.13
2023-01-31T10:12:13.205Z,8.15
2023-01-31T10:13:14.225Z,8.20
2023-01-31T10:14:13.170Z,8.19
2023-01-31T10:15:13.975Z,8.30
2023-01-31T10:16:13.157Z,8.34
2023-01-31T10:17:13.197Z,8.44
2023-01-31T10:18:13.127Z,8.49
2023-01-31T10:19:13.170Z,8.53
2023-01-31T10:20:13.116Z,8.64
2023-01-31T10:21:13.109Z,8.76
2023-01-31T10:22:13.072Z,8.82
2023-01-31T10:23:13.108Z,8.81
2023-01-31T10:24:13.117Z,8.82
2023-01-31T10:25:13.061Z,8.73
2023-01-31T10:26:15.018Z,8.70
2023-01-31T10:27:13.011Z,8.51
2023-01-31T10:28:13.002Z,8.42
2023-01-31T10:29:13.007Z,8.48
2023-01-31T10:30:13.008Z,8.44
2023-01-31T10:31:13.048Z,8.16
2023-01-31T10:32:13.031Z,8.26
2023-01-31T10:33:12.956Z,8.44
2023-01-31T10:34:12.951Z,8.56
2023-01-31T10:35:13.980Z,8.63
2023-01-31T10:36:12.923Z,8.63
2023-01-31T10:37:12.936Z,8.66
2023-01-31T10:38:13.920Z,8.74
2023-01-31T10:39:13.937Z,8.70
2023-01-31T10:40:12.935Z,8.74
2023-01-31T10:41:12.877Z,8.87
2023-01-31T10:42:12.919Z,8.78
2023-01-31T10:43:12.862Z,8.87
2023-01-31T10:44:12.861Z,8.76
2023-01-31T10:45:13.910Z,8.85
2023-01-31T10:46:13.017Z,8.88
2023-01-31T10:47:12.828Z,8.88
2023-01-31T10:48:12.893Z,8.97
2023-01-31T10:49:12.797Z,8.88
2023-01-31T10:50:13.803Z,8.87
2023-01-31T10:51:13.771Z,8.92
2023-01-31T10:52:12.797Z,8.95
2023-01-31T10:53:12.733Z,9.02
2023-01-31T10:54:13.756Z,8.82
2023-01-31T10:55:12.719Z,8.67
2023-01-31T10:56:12.748Z,8.70
2023-01-31T10:57:12.746Z,8.55
2023-01-31T10:58:12.743Z,8.64
2023-01-31T10:59:12.667Z,8.73
2023-01-31T11:00:12.685Z,8.52
2023-01-31T11:01:12.725Z,8.53
2023-01-31T11:02:12.758Z,8.56
2023-01-31T11:03:12.683Z,8.45
2023-01-31T11:04:13.669Z,8.44
2023-01-31T11:05:12.619Z,8.44
2023-01-31T11:06:12.617Z,8.48
2023-01-31T11:07:12.625Z,8.41
2023-01-31T11:08:12.620Z,8.48
2023-01-31T11:09:12.587Z,8.49
2023-01-31T11:10:12.553Z,8.55
2023-01-31T11:11:12.672Z,8.52
2023-01-31T11:12:12.561Z,8.42
2023-01-31T11:13:12.566Z,8.46
2023-01-31T11:14:12.542Z,8.49
2023-01-31T11:15:12.497Z,8.38
2023-01-31T11:16:12.548Z,8.30
2023-01-31T11:17:20.108Z,8.42
2023-01-31T11:18:12.461Z,8.42
2023-01-31T11:19:12.477Z,8.30
2023-01-31T11:20:13.428Z,8.38
2023-01-31T11:21:12.463Z,8.41
2023-01-31T11:22:13.410Z,8.38
2023-01-31T11:23:12.399Z,8.18
2023-01-31T11:24:12.423Z,8.13
2023-01-31T11:25:12.369Z,8.10
2023-01-31T11:26:12.573Z,8.18
2023-01-31T11:27:12.363Z,8.13
2023-01-31T11:28:13.353Z,8.30
2023-01-31T11:29:12.362Z,8.18
2023-01-31T11:30:12.369Z,8.18
2023-01-31T11:31:13.313Z,8.28
2023-01-31T11:32:12.323Z,8.34
2023-01-31T11:33:12.294Z,8.37
2023-01-31T11:34:12.276Z,8.34
2023-01-31T11:35:12.285Z,8.26
2023-01-31T11:36:12.262Z,8.33
2023-01-31T11:37:12.302Z,8.42
2023-01-31T11:38:12.320Z,8.36
2023-01-31T11:39:13.221Z,8.41
2023-01-31T11:40:12.219Z,8.38
2023-01-31T11:41:12.206Z,8.41
2023-01-31T11:42:12.190Z,8.28
2023-01-31T11:43:12.179Z,8.30
2023-01-31T11:44:12.204Z,8.36
2023-01-31T11:45:12.167Z,8.45
2023-01-31T11:46:12.179Z,8.53
2023-01-31T11:47:12.119Z,8.45
2023-01-31T11:48:12.202Z,8.30
2023-01-31T11:49:12.119Z,8.44
2023-01-31T11:50:13.105Z,8.37
2023-01-31T11:51:12.107Z,8.41
2023-01-31T11:52:12.097Z,8.41
2023-01-31T11:53:13.080Z,8.30
2023-01-31T11:54:12.046Z,8.30
2023-01-31T11:55:12.481Z,8.36
2023-01-31T11:56:13.035Z,8.45
2023-01-31T11:57:12.037Z,8.49
2023-01-31T11:58:12.041Z,8.37
2023-01-31T11:59:12.055Z,8.28
2023-01-31T12:00:12.021Z,8.28
2023-01-31T12:01:11.983Z,8.49
2023-01-31T12:02:12.044Z,8.36
2023-01-31T12:03:11.991Z,8.44
2023-01-31T12:04:11.985Z,8.38
2023-01-31T12:05:11.982Z,8.45
2023-01-31T12:06:11.936Z,8.48
2023-01-31T12:07:11.910Z,8.55
2023-01-31T12:08:11.940Z,8.44
2023-01-31T12:09:11.919Z,8.33
2023-01-31T12:10:11.875Z,8.38
2023-01-31T12:11:11.868Z,8.42
2023-01-31T12:12:11.856Z,8.38
2023-01-31T12:13:18.608Z,8.38
2023-01-31T12:14:12.854Z,8.42
2023-01-31T12:15:11.827Z,8.30
2023-01-31T12:16:12.863Z,8.36
2023-01-31T12:17:11.802Z,8.44
2023-01-31T12:18:11.833Z,8.37
2023-01-31T12:19:11.818Z,8.45
2023-01-31T12:20:26.962Z,8.41
2023-01-31T12:21:12.758Z,8.45
2023-01-31T12:22:12.743Z,8.34
2023-01-31T12:23:11.723Z,8.45
2023-01-31T12:24:11.739Z,8.38
2023-01-31T12:25:11.742Z,8.44
2023-01-31T12:26:11.716Z,8.30
2023-01-31T12:27:11.726Z,8.30
2023-01-31T12:28:11.690Z,8.41
2023-01-31T12:29:11.996Z,8.38
2023-01-31T12:30:11.856Z,8.37
2023-01-31T12:31:12.719Z,8.31
2023-01-31T12:32:11.677Z,8.30
2023-01-31T12:33:11.656Z,8.34
2023-01-31T12:34:11.660Z,8.41
2023-01-31T12:35:11.591Z,8.55
2023-01-31T12:36:12.618Z,8.46
2023-01-31T12:37:12.588Z,8.27
2023-01-31T12:38:11.586Z,8.33
2023-01-31T12:39:11.602Z,8.41
2023-01-31T12:40:24.291Z,8.27
2023-01-31T12:41:12.521Z,8.33
2023-01-31T12:42:11.566Z,8.42
2023-01-31T12:43:11.539Z,8.18
2023-01-31T12:44:11.537Z,8.18
2023-01-31T12:45:11.489Z,8.20
2023-01-31T12:46:11.541Z,8.19
2023-01-31T12:47:12.036Z,8.33
2023-01-31T12:48:11.467Z,8.44
2023-01-31T12:49:11.472Z,8.38
2023-01-31T12:50:12.474Z,8.44
2023-01-31T12:51:11.421Z,8.34
2023-01-31T12:52:12.437Z,8.27
2023-01-31T12:53:12.400Z,8.38
2023-01-31T12:54:11.386Z,8.44
2023-01-31T12:55:11.391Z,8.26
2023-01-31T12:56:12.382Z,8.27
2023-01-31T12:57:11.409Z,8.27
2023-01-31T12:58:11.341Z,8.31
2023-01-31T12:59:16.471Z,8.38
2023-01-31T13:00:12.304Z,8.44
2023-01-31T13:01:11.385Z,8.38
2023-01-31T13:02:12.380Z,8.33
2023-01-31T13:03:11.347Z,8.36
2023-01-31T13:04:12.309Z,8.30
2023-01-31T13:05:11.263Z,8.36
2023-01-31T13:06:11.253Z,8.38
2023-01-31T13:07:11.260Z,8.28
2023-01-31T13:08:12.509Z,8.28
2023-01-31T13:09:11.225Z,8.34
2023-01-31T13:10:11.235Z,8.33
2023-01-31T13:11:11.236Z,8.27
2023-01-31T13:12:11.202Z,8.30
2023-01-31T13:13:12.158Z,8.23
2023-01-31T13:14:11.213Z,8.23
2023-01-31T13:15:11.154Z,8.18
2023-01-31T13:16:11.237Z,8.18
2023-01-31T13:17:11.158Z,8.28
2023-01-31T13:18:11.127Z,8.26